sensor_id;sensor_type;location;lat;lon;timestamp;P1;durP1;ratioP1;P2;durP2;ratioP2
28605;SDS011;46498;49.968;7.754;2023-03-04T00:03:24;129.95;;;33.80;;
28605;SDS011;46498;49.968;7.754;2023-03-04T00:08:24;123.78;;;31.83;;
28605;SDS011;46498;49.968;7.754;2023-03-04T00:13:25;109.68;;;30.08;;
28605;SDS011;46498;49.968;7.754;2023-03-04T00:18:26;105.00;;;28.95;;
28605;SDS011;46498;49.968;7.754;2023-03-04T00:23:27;98.50;;;28.83;;
28605;SDS011;46498;49.968;7.754;2023-03-04T00:28:28;114.18;;;30.35;;
28605;SDS011;46498;49.968;7.754;2023-03-04T00:33:29;109.47;;;30.33;;
28605;SDS011;46498;49.968;7.754;2023-03-04T00:38:30;100.95;;;28.60;;
28605;SDS011;46498;49.968;7.754;2023-03-04T00:43:31;99.62;;;28.12;;
28605;SDS011;46498;49.968;7.754;2023-03-04T00:48:31;109.57;;;30.58;;
28605;SDS011;46498;49.968;7.754;2023-03-04T00:53:33;102.80;;;30.00;;
28605;SDS011;46498;49.968;7.754;2023-03-04T00:58:34;115.60;;;30.77;;
28605;SDS011;46498;49.968;7.754;2023-03-04T01:03:35;111.93;;;30.15;;
28605;SDS011;46498;49.968;7.754;2023-03-04T01:08:36;112.65;;;29.55;;
28605;SDS011;46498;49.968;7.754;2023-03-04T01:13:37;107.70;;;31.23;;
28605;SDS011;46498;49.968;7.754;2023-03-04T01:18:38;107.37;;;31.25;;
28605;SDS011;46498;49.968;7.754;2023-03-04T01:23:42;93.70;;;28.10;;
28605;SDS011;46498;49.968;7.754;2023-03-04T01:28:43;106.68;;;30.15;;
28605;SDS011;46498;49.968;7.754;2023-03-04T01:33:44;98.32;;;31.25;;
28605;SDS011;46498;49.968;7.754;2023-03-04T01:38:45;99.78;;;30.20;;
28605;SDS011;46498;49.968;7.754;2023-03-04T01:43:45;104.47;;;32.20;;
28605;SDS011;46498;49.968;7.754;2023-03-04T01:48:46;103.15;;;30.17;;
28605;SDS011;46498;49.968;7.754;2023-03-04T01:53:48;97.80;;;30.40;;
28605;SDS011;46498;49.968;7.754;2023-03-04T02:07:25;109.37;;;31.12;;
28605;SDS011;46498;49.968;7.754;2023-03-04T02:12:26;93.18;;;31.58;;
28605;SDS011;46498;49.968;7.754;2023-03-04T02:17:26;96.22;;;31.65;;
28605;SDS011;46498;49.968;7.754;2023-03-04T02:22:28;95.53;;;32.72;;
28605;SDS011;46498;49.968;7.754;2023-03-04T02:27:29;98.35;;;34.47;;
28605;SDS011;46498;49.968;7.754;2023-03-04T02:32:30;109.53;;;34.15;;
28605;SDS011;46498;49.968;7.754;2023-03-04T02:37:31;101.87;;;34.05;;
28605;SDS011;46498;49.968;7.754;2023-03-04T02:42:32;103.00;;;35.75;;
28605;SDS011;46498;49.968;7.754;2023-03-04T02:47:33;104.82;;;35.80;;
28605;SDS011;46498;49.968;7.754;2023-03-04T02:52:34;107.90;;;35.28;;
28605;SDS011;46498;49.968;7.754;2023-03-04T02:57:35;107.32;;;35.25;;
28605;SDS011;46498;49.968;7.754;2023-03-04T03:02:36;102.55;;;35.08;;
28605;SDS011;46498;49.968;7.754;2023-03-04T03:07:37;106.87;;;35.50;;
28605;SDS011;46498;49.968;7.754;2023-03-04T03:12:38;101.65;;;33.45;;
28605;SDS011;46498;49.968;7.754;2023-03-04T03:17:39;88.97;;;32.90;;
28605;SDS011;46498;49.968;7.754;2023-03-04T03:22:40;93.25;;;34.72;;
28605;SDS011;46498;49.968;7.754;2023-03-04T03:27:42;92.93;;;34.78;;
28605;SDS011;46498;49.968;7.754;2023-03-04T03:32:44;120.43;;;42.65;;
28605;SDS011;46498;49.968;7.754;2023-03-04T03:37:45;109.90;;;38.58;;
28605;SDS011;46498;49.968;7.754;2023-03-04T03:42:48;126.65;;;43.50;;
28605;SDS011;46498;49.968;7.754;2023-03-04T03:47:49;134.37;;;44.83;;
28605;SDS011;46498;49.968;7.754;2023-03-04T03:52:50;141.82;;;47.55;;
28605;SDS011;46498;49.968;7.754;2023-03-04T03:57:50;135.12;;;47.53;;
28605;SDS011;46498;49.968;7.754;2023-03-04T04:02:52;136.48;;;46.60;;
28605;SDS011;46498;49.968;7.754;2023-03-04T04:07:55;134.50;;;46.60;;
28605;SDS011;46498;49.968;7.754;2023-03-04T04:12:55;143.95;;;48.63;;
28605;SDS011;46498;49.968;7.754;2023-03-04T04:17:56;136.60;;;48.70;;
28605;SDS011;46498;49.968;7.754;2023-03-04T04:22:57;131.77;;;47.53;;
28605;SDS011;46498;49.968;7.754;2023-03-04T04:27:58;134.10;;;47.53;;
28605;SDS011;46498;49.968;7.754;2023-03-04T04:32:59;135.65;;;50.40;;
28605;SDS011;46498;49.968;7.754;2023-03-04T04:38:01;139.12;;;50.30;;
28605;SDS011;46498;49.968;7.754;2023-03-04T04:43:02;143.98;;;52.00;;
28605;SDS011;46498;49.968;7.754;2023-03-04T04:48:03;138.25;;;50.05;;
28605;SDS011;46498;49.968;7.754;2023-03-04T04:53:04;159.80;;;53.28;;
28605;SDS011;46498;49.968;7.754;2023-03-04T04:58:05;147.50;;;49.45;;
28605;SDS011;46498;49.968;7.754;2023-03-04T05:03:07;169.85;;;50.78;;
28605;SDS011;46498;49.968;7.754;2023-03-04T05:08:08;164.75;;;49.28;;
28605;SDS011;46498;49.968;7.754;2023-03-04T05:13:09;159.15;;;48.47;;
28605;SDS011;46498;49.968;7.754;2023-03-04T05:18:10;155.82;;;44.40;;
28605;SDS011;46498;49.968;7.754;2023-03-04T05:23:10;152.55;;;42.30;;
28605;SDS011;46498;49.968;7.754;2023-03-04T05:28:11;132.73;;;42.72;;
28605;SDS011;46498;49.968;7.754;2023-03-04T05:33:13;120.93;;;37.53;;
28605;SDS011;46498;49.968;7.754;2023-03-04T05:38:17;131.18;;;38.45;;
28605;SDS011;46498;49.968;7.754;2023-03-04T05:43:19;119.70;;;35.75;;
28605;SDS011;46498;49.968;7.754;2023-03-04T05:48:21;121.53;;;36.43;;
28605;SDS011;46498;49.968;7.754;2023-03-04T05:53:23;105.43;;;32.42;;
28605;SDS011;46498;49.968;7.754;2023-03-04T05:58:24;102.22;;;33.13;;
28605;SDS011;46498;49.968;7.754;2023-03-04T06:03:25;126.10;;;33.63;;
28605;SDS011;46498;49.968;7.754;2023-03-04T06:08:26;112.53;;;34.08;;
28605;SDS011;46498;49.968;7.754;2023-03-04T06:13:27;118.03;;;35.60;;
28605;SDS011;46498;49.968;7.754;2023-03-04T06:18:28;113.50;;;34.33;;
28605;SDS011;46498;49.968;7.754;2023-03-04T06:23:29;117.65;;;32.88;;
28605;SDS011;46498;49.968;7.754;2023-03-04T06:28:30;100.57;;;29.45;;
28605;SDS011;46498;49.968;7.754;2023-03-04T06:33:31;94.85;;;29.08;;
28605;SDS011;46498;49.968;7.754;2023-03-04T06:38:31;99.30;;;29.73;;
28605;SDS011;46498;49.968;7.754;2023-03-04T06:43:32;87.10;;;26.12;;
28605;SDS011;46498;49.968;7.754;2023-03-04T06:48:33;94.78;;;24.85;;
28605;SDS011;46498;49.968;7.754;2023-03-04T06:53:34;81.63;;;24.05;;
28605;SDS011;46498;49.968;7.754;2023-03-04T06:58:36;72.80;;;24.40;;
28605;SDS011;46498;49.968;7.754;2023-03-04T07:03:37;80.90;;;24.87;;
28605;SDS011;46498;49.968;7.754;2023-03-04T07:08:37;70.32;;;21.52;;
28605;SDS011;46498;49.968;7.754;2023-03-04T07:13:39;89.70;;;27.45;;
28605;SDS011;46498;49.968;7.754;2023-03-04T07:18:40;79.07;;;24.48;;
28605;SDS011;46498;49.968;7.754;2023-03-04T07:23:41;89.13;;;28.05;;
28605;SDS011;46498;49.968;7.754;2023-03-04T07:28:42;105.18;;;29.95;;
28605;SDS011;46498;49.968;7.754;2023-03-04T07:33:44;88.82;;;27.08;;
28605;SDS011;46498;49.968;7.754;2023-03-04T07:38:46;85.65;;;25.52;;
28605;SDS011;46498;49.968;7.754;2023-03-04T07:43:48;77.32;;;24.02;;
28605;SDS011;46498;49.968;7.754;2023-03-04T07:48:50;77.18;;;22.87;;
28605;SDS011;46498;49.968;7.754;2023-03-04T07:53:52;77.72;;;23.70;;
28605;SDS011;46498;49.968;7.754;2023-03-04T07:58:55;74.05;;;23.75;;
28605;SDS011;46498;49.968;7.754;2023-03-04T08:03:56;76.75;;;22.60;;
28605;SDS011;46498;49.968;7.754;2023-03-04T08:08:59;76.72;;;22.52;;
28605;SDS011;46498;49.968;7.754;2023-03-04T08:14:06;64.25;;;21.02;;
28605;SDS011;46498;49.968;7.754;2023-03-04T08:19:09;75.53;;;22.98;;
28605;SDS011;46498;49.968;7.754;2023-03-04T08:24:12;61.90;;;19.55;;
28605;SDS011;46498;49.968;7.754;2023-03-04T08:29:14;67.32;;;19.00;;
28605;SDS011;46498;49.968;7.754;2023-03-04T08:34:21;61.85;;;19.17;;
28605;SDS011;46498;49.968;7.754;2023-03-04T08:39:24;91.25;;;21.90;;
28605;SDS011;46498;49.968;7.754;2023-03-04T08:44:26;64.10;;;19.67;;
28605;SDS011;46498;49.968;7.754;2023-03-04T08:49:27;66.37;;;19.87;;
28605;SDS011;46498;49.968;7.754;2023-03-04T08:54:28;64.18;;;17.80;;
28605;SDS011;46498;49.968;7.754;2023-03-04T08:59:29;50.75;;;16.30;;
28605;SDS011;46498;49.968;7.754;2023-03-04T09:04:29;46.13;;;14.75;;
28605;SDS011;46498;49.968;7.754;2023-03-04T09:09:30;38.38;;;12.25;;
28605;SDS011;46498;49.968;7.754;2023-03-04T09:14:31;42.75;;;13.15;;
28605;SDS011;46498;49.968;7.754;2023-03-04T09:19:35;47.92;;;12.60;;
28605;SDS011;46498;49.968;7.754;2023-03-04T09:24:36;43.30;;;13.27;;
28605;SDS011;46498;49.968;7.754;2023-03-04T09:29:37;42.47;;;13.02;;
28605;SDS011;46498;49.968;7.754;2023-03-04T09:34:38;42.97;;;14.05;;
28605;SDS011;46498;49.968;7.754;2023-03-04T09:39:38;50.30;;;16.77;;
28605;SDS011;46498;49.968;7.754;2023-03-04T09:44:40;57.55;;;16.30;;
28605;SDS011;46498;49.968;7.754;2023-03-04T09:49:45;61.05;;;18.65;;
28605;SDS011;46498;49.968;7.754;2023-03-04T09:54:59;55.08;;;19.20;;
28605;SDS011;46498;49.968;7.754;2023-03-04T10:00:09;56.50;;;18.83;;
28605;SDS011;46498;49.968;7.754;2023-03-04T10:05:20;61.53;;;18.55;;
28605;SDS011;46498;49.968;7.754;2023-03-04T10:10:25;62.60;;;18.17;;
28605;SDS011;46498;49.968;7.754;2023-03-04T10:15:39;68.05;;;20.55;;
28605;SDS011;46498;49.968;7.754;2023-03-04T10:20:54;71.10;;;20.02;;
28605;SDS011;46498;49.968;7.754;2023-03-04T10:25:58;64.75;;;20.00;;
28605;SDS011;46498;49.968;7.754;2023-03-04T10:31:16;59.60;;;19.92;;
28605;SDS011;46498;49.968;7.754;2023-03-04T10:36:35;71.68;;;19.52;;
28605;SDS011;46498;49.968;7.754;2023-03-04T10:41:44;57.72;;;17.73;;
28605;SDS011;46498;49.968;7.754;2023-03-04T10:46:55;58.38;;;18.23;;
28605;SDS011;46498;49.968;7.754;2023-03-04T10:52:02;54.75;;;18.35;;
28605;SDS011;46498;49.968;7.754;2023-03-04T10:57:18;57.65;;;18.45;;
28605;SDS011;46498;49.968;7.754;2023-03-04T11:02:33;64.97;;;18.67;;
28605;SDS011;46498;49.968;7.754;2023-03-04T11:07:38;57.27;;;19.03;;
28605;SDS011;46498;49.968;7.754;2023-03-04T11:13:18;70.03;;;24.30;;
28605;SDS011;46498;49.968;7.754;2023-03-04T11:18:33;63.70;;;20.50;;
28605;SDS011;46498;49.968;7.754;2023-03-04T11:23:46;64.50;;;19.60;;
28605;SDS011;46498;49.968;7.754;2023-03-04T11:28:52;57.72;;;17.60;;
28605;SDS011;46498;49.968;7.754;2023-03-04T11:34:02;55.78;;;17.40;;
28605;SDS011;46498;49.968;7.754;2023-03-04T11:39:23;51.22;;;16.67;;
28605;SDS011;46498;49.968;7.754;2023-03-04T11:44:32;59.92;;;17.83;;
28605;SDS011;46498;49.968;7.754;2023-03-04T12:03:23;27.73;;;8.88;;
28605;SDS011;46498;49.968;7.754;2023-03-04T12:08:52;39.60;;;12.45;;
28605;SDS011;46498;49.968;7.754;2023-03-04T12:14:07;32.30;;;10.10;;
28605;SDS011;46498;49.968;7.754;2023-03-04T12:19:38;34.72;;;11.00;;
28605;SDS011;46498;49.968;7.754;2023-03-04T12:31:40;35.45;;;12.90;;
28605;SDS011;46498;49.968;7.754;2023-03-04T13:02:01;24.90;;;8.90;;
28605;SDS011;46498;49.968;7.754;2023-03-04T13:07:45;21.62;;;9.00;;
28605;SDS011;46498;49.968;7.754;2023-03-04T13:13:35;22.83;;;9.13;;
28605;SDS011;46498;49.968;7.754;2023-03-04T13:18:39;26.55;;;10.95;;
28605;SDS011;46498;49.968;7.754;2023-03-04T13:23:40;30.08;;;10.55;;
28605;SDS011;46498;49.968;7.754;2023-03-04T13:28:44;22.65;;;9.32;;
28605;SDS011;46498;49.968;7.754;2023-03-04T13:33:55;33.15;;;10.55;;
28605;SDS011;46498;49.968;7.754;2023-03-04T13:39:02;24.45;;;9.18;;
28605;SDS011;46498;49.968;7.754;2023-03-04T13:51:56;24.52;;;9.05;;
28605;SDS011;46498;49.968;7.754;2023-03-04T14:02:28;25.15;;;10.65;;
28605;SDS011;46498;49.968;7.754;2023-03-04T14:07:37;26.30;;;11.23;;
28605;SDS011;46498;49.968;7.754;2023-03-04T14:12:40;31.23;;;12.80;;
28605;SDS011;46498;49.968;7.754;2023-03-04T14:17:45;24.70;;;9.15;;
28605;SDS011;46498;49.968;7.754;2023-03-04T14:22:51;22.00;;;8.82;;
28605;SDS011;46498;49.968;7.754;2023-03-04T14:33:57;21.52;;;9.18;;
28605;SDS011;46498;49.968;7.754;2023-03-04T14:39:03;20.10;;;7.53;;
28605;SDS011;46498;49.968;7.754;2023-03-04T14:44:28;18.00;;;6.93;;
28605;SDS011;46498;49.968;7.754;2023-03-04T14:49:51;23.42;;;7.53;;
28605;SDS011;46498;49.968;7.754;2023-03-04T14:54:59;17.42;;;7.10;;
28605;SDS011;46498;49.968;7.754;2023-03-04T15:01:52;26.67;;;10.07;;
28605;SDS011;46498;49.968;7.754;2023-03-04T15:06:53;19.52;;;8.27;;
28605;SDS011;46498;49.968;7.754;2023-03-04T15:11:57;18.45;;;8.10;;
28605;SDS011;46498;49.968;7.754;2023-03-04T15:17:03;22.70;;;8.60;;
28605;SDS011;46498;49.968;7.754;2023-03-04T15:22:04;26.73;;;8.73;;
28605;SDS011;46498;49.968;7.754;2023-03-04T15:27:07;15.88;;;6.93;;
28605;SDS011;46498;49.968;7.754;2023-03-04T15:32:11;18.30;;;7.00;;
28605;SDS011;46498;49.968;7.754;2023-03-04T15:37:14;15.68;;;6.32;;
28605;SDS011;46498;49.968;7.754;2023-03-04T15:42:21;22.30;;;9.07;;
28605;SDS011;46498;49.968;7.754;2023-03-04T15:47:22;14.48;;;6.45;;
28605;SDS011;46498;49.968;7.754;2023-03-04T15:52:25;13.63;;;6.80;;
28605;SDS011;46498;49.968;7.754;2023-03-04T15:57:25;16.40;;;6.95;;
28605;SDS011;46498;49.968;7.754;2023-03-04T16:02:27;14.60;;;6.75;;
28605;SDS011;46498;49.968;7.754;2023-03-04T16:07:28;18.27;;;7.80;;
28605;SDS011;46498;49.968;7.754;2023-03-04T16:12:30;16.65;;;7.90;;
28605;SDS011;46498;49.968;7.754;2023-03-04T16:17:32;12.15;;;6.28;;
28605;SDS011;46498;49.968;7.754;2023-03-04T16:22:32;14.23;;;6.62;;
28605;SDS011;46498;49.968;7.754;2023-03-04T16:27:33;13.25;;;6.85;;
28605;SDS011;46498;49.968;7.754;2023-03-04T16:32:34;15.02;;;6.53;;
28605;SDS011;46498;49.968;7.754;2023-03-04T16:37:35;16.23;;;6.20;;
28605;SDS011;46498;49.968;7.754;2023-03-04T16:42:37;57.40;;;24.20;;
28605;SDS011;46498;49.968;7.754;2023-03-04T16:47:38;16.25;;;7.25;;
28605;SDS011;46498;49.968;7.754;2023-03-04T16:52:38;20.48;;;9.77;;
28605;SDS011;46498;49.968;7.754;2023-03-04T16:57:39;25.50;;;11.25;;
28605;SDS011;46498;49.968;7.754;2023-03-04T17:02:40;14.02;;;6.70;;
28605;SDS011;46498;49.968;7.754;2023-03-04T17:07:41;13.55;;;7.43;;
28605;SDS011;46498;49.968;7.754;2023-03-04T17:12:42;14.65;;;5.80;;
28605;SDS011;46498;49.968;7.754;2023-03-04T17:17:43;16.33;;;7.85;;
28605;SDS011;46498;49.968;7.754;2023-03-04T17:22:44;23.00;;;8.80;;
28605;SDS011;46498;49.968;7.754;2023-03-04T17:27:45;15.13;;;7.25;;
28605;SDS011;46498;49.968;7.754;2023-03-04T17:32:46;17.50;;;7.82;;
28605;SDS011;46498;49.968;7.754;2023-03-04T17:37:47;13.23;;;5.57;;
28605;SDS011;46498;49.968;7.754;2023-03-04T17:42:48;17.55;;;7.15;;
28605;SDS011;46498;49.968;7.754;2023-03-04T17:47:49;16.25;;;7.12;;
28605;SDS011;46498;49.968;7.754;2023-03-04T17:52:50;18.75;;;8.18;;
28605;SDS011;46498;49.968;7.754;2023-03-04T17:57:50;19.02;;;7.78;;
28605;SDS011;46498;49.968;7.754;2023-03-04T18:02:52;19.90;;;7.78;;
28605;SDS011;46498;49.968;7.754;2023-03-04T18:07:53;16.10;;;7.07;;
28605;SDS011;46498;49.968;7.754;2023-03-04T18:12:54;12.30;;;5.80;;
28605;SDS011;46498;49.968;7.754;2023-03-04T18:17:55;14.77;;;6.40;;
28605;SDS011;46498;49.968;7.754;2023-03-04T18:22:56;11.50;;;5.28;;
28605;SDS011;46498;49.968;7.754;2023-03-04T18:27:58;17.87;;;5.95;;
28605;SDS011;46498;49.968;7.754;2023-03-04T18:32:59;17.42;;;6.22;;
28605;SDS011;46498;49.968;7.754;2023-03-04T18:38:02;17.20;;;6.10;;
28605;SDS011;46498;49.968;7.754;2023-03-04T18:43:03;19.87;;;7.03;;
28605;SDS011;46498;49.968;7.754;2023-03-04T18:48:04;17.40;;;6.45;;
28605;SDS011;46498;49.968;7.754;2023-03-04T18:53:05;14.15;;;5.60;;
28605;SDS011;46498;49.968;7.754;2023-03-04T18:58:06;15.95;;;6.57;;
28605;SDS011;46498;49.968;7.754;2023-03-04T19:03:08;12.80;;;5.47;;
28605;SDS011;46498;49.968;7.754;2023-03-04T19:08:11;20.80;;;6.97;;
28605;SDS011;46498;49.968;7.754;2023-03-04T19:13:12;13.43;;;6.00;;
28605;SDS011;46498;49.968;7.754;2023-03-04T19:18:15;20.15;;;7.75;;
28605;SDS011;46498;49.968;7.754;2023-03-04T19:23:16;17.10;;;7.45;;
28605;SDS011;46498;49.968;7.754;2023-03-04T19:28:17;12.80;;;6.18;;
28605;SDS011;46498;49.968;7.754;2023-03-04T19:33:18;16.12;;;6.30;;
28605;SDS011;46498;49.968;7.754;2023-03-04T19:38:19;15.73;;;5.82;;
28605;SDS011;46498;49.968;7.754;2023-03-04T19:43:20;16.95;;;7.43;;
28605;SDS011;46498;49.968;7.754;2023-03-04T19:48:21;24.30;;;10.45;;
28605;SDS011;46498;49.968;7.754;2023-03-04T19:53:23;15.60;;;7.12;;
28605;SDS011;46498;49.968;7.754;2023-03-04T19:58:24;29.27;;;14.93;;
28605;SDS011;46498;49.968;7.754;2023-03-04T20:03:25;18.52;;;7.93;;
28605;SDS011;46498;49.968;7.754;2023-03-04T20:08:26;16.73;;;6.68;;
28605;SDS011;46498;49.968;7.754;2023-03-04T20:13:27;16.45;;;6.35;;
28605;SDS011;46498;49.968;7.754;2023-03-04T20:18:28;15.00;;;5.68;;
28605;SDS011;46498;49.968;7.754;2023-03-04T20:23:28;11.12;;;5.75;;
28605;SDS011;46498;49.968;7.754;2023-03-04T20:28:30;17.83;;;6.72;;
28605;SDS011;46498;49.968;7.754;2023-03-04T20:33:31;21.08;;;8.80;;
28605;SDS011;46498;49.968;7.754;2023-03-04T20:38:32;14.40;;;6.90;;
28605;SDS011;46498;49.968;7.754;2023-03-04T20:43:33;13.25;;;5.90;;
28605;SDS011;46498;49.968;7.754;2023-03-04T20:48:33;14.85;;;6.45;;
28605;SDS011;46498;49.968;7.754;2023-03-04T20:53:34;15.98;;;8.15;;
28605;SDS011;46498;49.968;7.754;2023-03-04T20:58:35;17.65;;;8.57;;
28605;SDS011;46498;49.968;7.754;2023-03-04T21:03:36;19.20;;;8.60;;
28605;SDS011;46498;49.968;7.754;2023-03-04T21:08:37;19.10;;;9.50;;
28605;SDS011;46498;49.968;7.754;2023-03-04T21:13:39;18.77;;;8.52;;
28605;SDS011;46498;49.968;7.754;2023-03-04T21:18:42;19.50;;;8.68;;
28605;SDS011;46498;49.968;7.754;2023-03-04T21:23:47;16.98;;;8.88;;
28605;SDS011;46498;49.968;7.754;2023-03-04T21:28:52;36.20;;;14.05;;
28605;SDS011;46498;49.968;7.754;2023-03-04T21:33:53;38.15;;;15.40;;
28605;SDS011;46498;49.968;7.754;2023-03-04T21:38:55;33.70;;;14.00;;
28605;SDS011;46498;49.968;7.754;2023-03-04T21:43:56;36.58;;;15.18;;
28605;SDS011;46498;49.968;7.754;2023-03-04T21:48:57;49.83;;;20.00;;
28605;SDS011;46498;49.968;7.754;2023-03-04T21:53:58;25.67;;;12.48;;
28605;SDS011;46498;49.968;7.754;2023-03-04T21:58:59;30.05;;;15.75;;
28605;SDS011;46498;49.968;7.754;2023-03-04T22:04:01;26.43;;;11.63;;
28605;SDS011;46498;49.968;7.754;2023-03-04T22:09:03;32.17;;;14.35;;
28605;SDS011;46498;49.968;7.754;2023-03-04T22:14:04;42.50;;;20.17;;
28605;SDS011;46498;49.968;7.754;2023-03-04T22:19:06;28.17;;;12.45;;
28605;SDS011;46498;49.968;7.754;2023-03-04T22:24:06;30.42;;;13.15;;
28605;SDS011;46498;49.968;7.754;2023-03-04T22:29:07;26.45;;;12.88;;
28605;SDS011;46498;49.968;7.754;2023-03-04T22:34:09;28.52;;;12.90;;
28605;SDS011;46498;49.968;7.754;2023-03-04T22:44:14;32.40;;;14.20;;
28605;SDS011;46498;49.968;7.754;2023-03-04T22:49:14;30.98;;;14.38;;
28605;SDS011;46498;49.968;7.754;2023-03-04T22:54:16;32.80;;;16.62;;
28605;SDS011;46498;49.968;7.754;2023-03-04T22:59:17;37.15;;;15.93;;
28605;SDS011;46498;49.968;7.754;2023-03-04T23:04:18;49.80;;;19.10;;
28605;SDS011;46498;49.968;7.754;2023-03-04T23:09:19;40.12;;;19.60;;
28605;SDS011;46498;49.968;7.754;2023-03-04T23:14:20;54.63;;;23.12;;
28605;SDS011;46498;49.968;7.754;2023-03-04T23:19:21;60.47;;;25.00;;
28605;SDS011;46498;49.968;7.754;2023-03-04T23:24:22;100.87;;;38.70;;
28605;SDS011;46498;49.968;7.754;2023-03-04T23:29:26;54.03;;;21.75;;
28605;SDS011;46498;49.968;7.754;2023-03-04T23:34:26;58.22;;;24.08;;
28605;SDS011;46498;49.968;7.754;2023-03-04T23:39:27;49.00;;;22.83;;
28605;SDS011;46498;49.968;7.754;2023-03-04T23:44:28;50.12;;;22.00;;
28605;SDS011;46498;49.968;7.754;2023-03-04T23:49:29;80.53;;;32.10;;
28605;SDS011;46498;49.968;7.754;2023-03-04T23:54:30;74.62;;;31.00;;
28605;SDS011;46498;49.968;7.754;2023-03-04T23:59:31;56.88;;;23.12;;
